Sanshu Maru — JD2889 — position and weather

sailwx.info

Track history (hours):
 
Tides and Currents Weather Stations Pressure Air Temp Water Temp Dewpoint Dewpoint Depression Visibility Wind Speed Wind Dir Waves Ship Positions

Sanshu Maru

Last reported at 2017-Nov-12 00:41 UTC. Time now 2017-Nov-17 21:15 UTC.
Position N 34°57' E 139°44'.

Length 74 m; draft 5 m.

Type: Cargo ship. MMSI: 431000879.

Date/timePositionNaut miles runAvg speedWind from/ knotsBaromVisibWave heightAir tempDewpointWater temp
2017-Nov-12 00:41N 34°57' E 139°44'211.4
2017-Nov-12 00:30N 34°59' E 139°43'612.8
2017-Nov-12 00:00N 35°05' E 139°44'613.0
2017-Nov-11 23:30N 35°12' E 139°46'611.9
2017-Nov-11 23:00N 35°17' E 139°44'611.9
2017-Nov-11 22:30N 35°23' E 139°42'612.4
2017-Nov-11 22:00N 35°27' E 139°48'611.5
2017-Nov-11 21:29N 35°33' E 139°51'4 0.2
2017-Nov-10 23:59N 35°37' E 139°49'6 9.5
2017-Nov-10 23:18N 35°31' E 139°53'311.2
2017-Nov-10 23:00N 35°28' E 139°51'612.0
2017-Nov-10 22:31N 35°23' E 139°46'611.3
2017-Nov-10 22:00N 35°18' E 139°45'510.9
2017-Nov-10 21:31N 35°13' E 139°47'611.4
2017-Nov-10 21:00N 35°07' E 139°46'510.6
2017-Nov-10 20:30N 35°02' E 139°43'611.9
2017-Nov-10 20:00N 34°59' E 139°37'  
2017-Nov-05 11:03N 34°11' E 134°59'212.1
2017-Nov-05 10:53N 34°13' E 134°59'1310.7
2017-Nov-05 09:41N 34°26' E 135°00'311.0
2017-Nov-05 09:27N 34°28' E 135°01'510.4
2017-Nov-05 09:00N 34°33' E 135°03'  
Track history (hours):
 
Tides and Currents Weather Stations Pressure Air Temp Water Temp Dewpoint Dewpoint Depression Visibility Wind Speed Wind Dir Waves Ship Positions

Sanshu Maru

Last reported at 2017-Nov-12 00:41 UTC. Time now 2017-Nov-17 21:15 UTC.
Position N 34°57' E 139°44'.

Length 74 m; draft 5 m.

Type: Cargo ship. MMSI: 431000879.

Date/timePositionNaut miles runAvg speedWind from/ knotsBaromVisibWave heightAir tempDewpointWater temp
2017-Nov-12 00:41N 34°57' E 139°44'211.4
2017-Nov-12 00:30N 34°59' E 139°43'612.8
2017-Nov-12 00:00N 35°05' E 139°44'613.0
2017-Nov-11 23:30N 35°12' E 139°46'611.9
2017-Nov-11 23:00N 35°17' E 139°44'611.9
2017-Nov-11 22:30N 35°23' E 139°42'612.4
2017-Nov-11 22:00N 35°27' E 139°48'611.5
2017-Nov-11 21:29N 35°33' E 139°51'4 0.2
2017-Nov-10 23:59N 35°37' E 139°49'6 9.5
2017-Nov-10 23:18N 35°31' E 139°53'311.2
2017-Nov-10 23:00N 35°28' E 139°51'612.0
2017-Nov-10 22:31N 35°23' E 139°46'611.3
2017-Nov-10 22:00N 35°18' E 139°45'510.9
2017-Nov-10 21:31N 35°13' E 139°47'611.4
2017-Nov-10 21:00N 35°07' E 139°46'510.6
2017-Nov-10 20:30N 35°02' E 139°43'611.9
2017-Nov-10 20:00N 34°59' E 139°37'  
2017-Nov-05 11:03N 34°11' E 134°59'212.1
2017-Nov-05 10:53N 34°13' E 134°59'1310.7
2017-Nov-05 09:41N 34°26' E 135°00'311.0
2017-Nov-05 09:27N 34°28' E 135°01'510.4
2017-Nov-05 09:00N 34°33' E 135°03'  

Dump ship's entire track history